createdAt,value
2019-06-26T00:00:46.114Z,102142.85
2019-06-26T00:03:14.697Z,102145.89
2019-06-26T00:05:43.389Z,102147.70
2019-06-26T00:08:11.090Z,102147.73
2019-06-26T00:10:39.800Z,102146.61
2019-06-26T00:13:08.898Z,102145.08
2019-06-26T00:15:38.296Z,102151.39
2019-06-26T00:18:07.850Z,102152.22
2019-06-26T00:20:35.518Z,102159.07
2019-06-26T00:23:03.282Z,102154.44
2019-06-26T00:25:31.141Z,102149.12
2019-06-26T00:28:01.397Z,102152.61
2019-06-26T00:30:29.211Z,102156.72
2019-06-26T00:32:57.435Z,102153.64
2019-06-26T00:35:26.078Z,102154.48
2019-06-26T00:37:53.942Z,102149.98
2019-06-26T00:40:25.074Z,102156.72
2019-06-26T00:42:52.961Z,102164.47
2019-06-26T00:45:20.625Z,102154.78
2019-06-26T00:47:48.862Z,102151.82
2019-06-26T00:50:16.871Z,102154.44
2019-06-26T00:52:44.550Z,102153.08
2019-06-26T00:55:12.930Z,102152.02
2019-06-26T00:57:40.743Z,102162.42
2019-06-26T01:00:09.368Z,102159.54
2019-06-26T01:02:37.799Z,102165.05
2019-06-26T01:05:09.527Z,102160.03
2019-06-26T01:07:38.730Z,102161.32
2019-06-26T01:10:09.426Z,102158.47
2019-06-26T01:12:38.304Z,102158.55
2019-06-26T01:15:06.531Z,102159.57
2019-06-26T01:17:37.017Z,102160.18
2019-06-26T01:20:07.065Z,102159.57
2019-06-26T01:22:37.080Z,102159.03
2019-06-26T01:25:05.502Z,102164.45
2019-06-26T01:27:33.683Z,102161.17
2019-06-26T01:30:01.579Z,102165.84
2019-06-26T01:32:29.329Z,102172.75
2019-06-26T01:34:57.473Z,102188.86
2019-06-26T01:37:25.165Z,102187.70
2019-06-26T01:39:57.528Z,102187.31
2019-06-26T01:42:27.644Z,102196.16
2019-06-26T01:44:57.951Z,102193.52
2019-06-26T01:47:27.758Z,102192.52
2019-06-26T01:49:55.615Z,102201.66
2019-06-26T01:52:23.305Z,102201.17
2019-06-26T01:54:51.538Z,102192.36
2019-06-26T01:57:19.358Z,102199.11
2019-06-26T01:59:47.343Z,102207.32
2019-06-26T02:02:15.750Z,102211.46
2019-06-26T02:04:43.617Z,102209.20
2019-06-26T02:07:11.304Z,102213.02
2019-06-26T02:09:38.987Z,102206.97
2019-06-26T02:12:07.666Z,102212.36
2019-06-26T02:14:38.449Z,102210.73
2019-06-26T02:17:06.469Z,102212.67
2019-06-26T02:19:36.628Z,102219.64
2019-06-26T02:22:04.348Z,102222.94
2019-06-26T02:24:32.078Z,102222.45
2019-06-26T02:26:59.890Z,102225.06
2019-06-26T02:29:27.603Z,102238.95
2019-06-26T02:31:55.746Z,102244.11
2019-06-26T02:34:24.423Z,102247.26
2019-06-26T02:36:52.905Z,102247.98
2019-06-26T02:39:21.277Z,102242.19
2019-06-26T02:41:49.082Z,102243.19
2019-06-26T02:44:16.964Z,102241.53
2019-06-26T02:46:47.511Z,102251.03
2019-06-26T02:49:19.755Z,102257.97
2019-06-26T02:51:47.512Z,102255.40
2019-06-26T02:54:15.333Z,102259.57
2019-06-26T02:56:44.384Z,102257.70
2019-06-26T02:59:12.179Z,102254.25
2019-06-26T03:01:40.642Z,102253.92
2019-06-26T03:04:10.766Z,102260.56
2019-06-26T03:06:39.146Z,102271.75
2019-06-26T03:09:07.418Z,102274.53
2019-06-26T03:11:35.089Z,102276.73
2019-06-26T03:14:03.215Z,102288.35
2019-06-26T03:16:30.899Z,102288.19
2019-06-26T03:18:58.713Z,102293.44
2019-06-26T03:21:28.955Z,102292.98
2019-06-26T03:23:56.897Z,102301.30
2019-06-26T03:26:26.222Z,102307.06
2019-06-26T03:28:53.970Z,102310.98
2019-06-26T03:31:22.740Z,102311.73
2019-06-26T03:33:55.224Z,102312.28
2019-06-26T03:36:23.377Z,102319.09
2019-06-26T03:38:52.386Z,102319.77
2019-06-26T03:41:23.790Z,102320.72
2019-06-26T03:43:54.476Z,102332.42
2019-06-26T03:46:22.470Z,102322.61
2019-06-26T03:48:59.229Z,102331.02
2019-06-26T03:51:29.197Z,102337.59
2019-06-26T03:53:57.371Z,102343.07
2019-06-26T03:56:25.188Z,102350.77
2019-06-26T03:58:54.809Z,102345.73
2019-06-26T04:01:22.586Z,102341.33
2019-06-26T04:03:50.480Z,102346.18
2019-06-26T04:06:18.296Z,102355.35
2019-06-26T04:08:45.967Z,102347.47
2019-06-26T04:11:13.801Z,102351.69
2019-06-26T04:13:41.486Z,102349.80
2019-06-26T04:16:09.166Z,102353.10
2019-06-26T04:18:37.551Z,102346.21
2019-06-26T04:21:08.868Z,102340.23
2019-06-26T04:23:36.544Z,102343.83
2019-06-26T04:26:04.420Z,102351.36
2019-06-26T04:28:33.797Z,102346.16
2019-06-26T04:31:01.647Z,102347.05
2019-06-26T04:33:29.812Z,102354.12
2019-06-26T04:35:57.589Z,102361.30
2019-06-26T04:38:25.282Z,102360.52
2019-06-26T04:40:55.574Z,102367.33
2019-06-26T04:43:23.274Z,102370.80
2019-06-26T04:45:58.226Z,102369.13
2019-06-26T04:48:20.907Z,102368.97
2019-06-26T04:50:49.215Z,102373.95
2019-06-26T04:53:17.054Z,102377.25
2019-06-26T04:55:44.796Z,102381.33
2019-06-26T04:58:12.476Z,102381.71
2019-06-26T05:00:40.437Z,102382.87
2019-06-26T05:03:08.148Z,102388.93
2019-06-26T05:05:39.846Z,102393.33
2019-06-26T05:08:05.524Z,102395.22
2019-06-26T05:10:33.245Z,102398.87
2019-06-26T05:13:00.943Z,102397.95
2019-06-26T05:15:28.778Z,102399.16
2019-06-26T05:17:56.472Z,102399.55
2019-06-26T05:20:24.427Z,102401.20
2019-06-26T05:22:52.141Z,102402.52
2019-06-26T05:25:19.985Z,102403.52
2019-06-26T05:27:47.839Z,102407.79
2019-06-26T05:30:15.845Z,102401.14
2019-06-26T05:32:43.592Z,102400.07
2019-06-26T05:37:38.820Z,102394.28
2019-06-26T05:40:09.359Z,102399.70
2019-06-26T05:42:37.087Z,102399.80
2019-06-26T05:45:06.421Z,102400.85
2019-06-26T05:47:34.325Z,102408.20
2019-06-26T05:50:02.107Z,102409.78
2019-06-26T05:52:29.946Z,102406.11
2019-06-26T05:54:57.821Z,102409.29
2019-06-26T05:57:25.697Z,102416.97
2019-06-26T05:59:53.477Z,102423.14
2019-06-26T06:02:21.272Z,102424.86
2019-06-26T06:04:48.955Z,102429.23
2019-06-26T06:07:16.647Z,102439.86
2019-06-26T06:09:44.473Z,102444.52
2019-06-26T06:12:12.305Z,102445.52
2019-06-26T06:14:40.136Z,102446.48
2019-06-26T06:17:08.053Z,102450.61
2019-06-26T06:19:35.794Z,102449.33
2019-06-26T06:22:03.683Z,102442.87
2019-06-26T06:24:31.493Z,102446.43
2019-06-26T06:26:59.346Z,102448.06
2019-06-26T06:29:30.585Z,102443.72
2019-06-26T06:31:56.860Z,102445.17
2019-06-26T06:34:24.528Z,102450.52
2019-06-26T06:36:52.348Z,102454.67
2019-06-26T06:39:20.184Z,102459.74
2019-06-26T06:41:47.992Z,102466.44
2019-06-26T06:44:15.670Z,102467.89
2019-06-26T06:46:43.477Z,102463.25
2019-06-26T06:49:11.190Z,102470.50
2019-06-26T06:51:38.985Z,102474.36
2019-06-26T06:54:06.711Z,102473.86
2019-06-26T06:56:34.446Z,102478.99
2019-06-26T06:59:04.961Z,102491.80
2019-06-26T07:01:32.712Z,102496.75
2019-06-26T07:04:03.417Z,102505.36
2019-06-26T07:06:31.112Z,102505.86
2019-06-26T07:09:00.530Z,102526.38
2019-06-26T07:11:28.347Z,102527.22
2019-06-26T07:13:56.333Z,102526.50
2019-06-26T07:16:24.173Z,102540.30
2019-06-26T07:18:52.259Z,102538.92
2019-06-26T07:21:20.007Z,102545.85
2019-06-26T07:23:47.746Z,102544.58
2019-06-26T07:26:15.926Z,102560.75
2019-06-26T07:28:43.753Z,102558.49
2019-06-26T07:31:11.581Z,102555.09
2019-06-26T07:33:39.416Z,102564.86
2019-06-26T07:36:09.064Z,102570.64
2019-06-26T07:38:36.740Z,102566.14
2019-06-26T07:41:04.448Z,102565.63
2019-06-26T07:43:32.346Z,102565.50
2019-06-26T07:46:00.014Z,102557.85
2019-06-26T07:48:27.721Z,102560.06
2019-06-26T07:50:55.643Z,102570.13
2019-06-26T07:53:23.328Z,102570.41
2019-06-26T07:55:51.038Z,102576.20
2019-06-26T07:58:19.209Z,102584.47
2019-06-26T08:00:46.934Z,102585.81
2019-06-26T08:03:14.625Z,102590.65
2019-06-26T08:05:43.179Z,102581.58
2019-06-26T08:08:14.599Z,102581.01
2019-06-26T08:10:44.766Z,102575.95
2019-06-26T08:13:12.607Z,102584.59
2019-06-26T08:15:40.540Z,102587.13
2019-06-26T08:18:08.255Z,102591.80
2019-06-26T08:20:50.253Z,102589.23
2019-06-26T08:23:05.726Z,102594.38
2019-06-26T08:25:33.426Z,102588.61
2019-06-26T08:28:01.276Z,102594.80
2019-06-26T08:30:29.050Z,102586.55
2019-06-26T08:32:56.784Z,102587.67
2019-06-26T08:35:24.841Z,102587.58
2019-06-26T08:38:09.045Z,102588.73
2019-06-26T08:40:22.549Z,102587.69
2019-06-26T08:42:50.383Z,102590.92
2019-06-26T08:45:18.084Z,102599.72
2019-06-26T08:47:45.915Z,102601.91
2019-06-26T08:50:14.126Z,102598.98
2019-06-26T08:52:41.953Z,102599.59
2019-06-26T08:55:10.350Z,102600.41
2019-06-26T08:57:38.039Z,102602.25
2019-06-26T09:00:06.491Z,102599.33
2019-06-26T09:02:34.254Z,102602.13
2019-06-26T09:05:02.153Z,102609.78
2019-06-26T09:07:29.829Z,102604.92
2019-06-26T09:09:58.291Z,102604.91
2019-06-26T09:12:26.238Z,102601.17
2019-06-26T09:14:53.922Z,102603.92
2019-06-26T09:17:21.600Z,102604.89
2019-06-26T09:19:49.418Z,102597.27
2019-06-26T09:22:17.099Z,102601.17
2019-06-26T09:24:44.819Z,102606.98
2019-06-26T09:27:14.950Z,102594.91
2019-06-26T09:29:42.241Z,102597.42
2019-06-26T09:32:09.959Z,102604.38
2019-06-26T09:34:37.795Z,102603.06
2019-06-26T09:37:05.532Z,102604.69
2019-06-26T09:39:33.229Z,102617.02
2019-06-26T09:42:01.154Z,102623.92
2019-06-26T09:44:28.958Z,102616.55
2019-06-26T09:46:56.640Z,102624.86
2019-06-26T09:49:24.440Z,102633.77
2019-06-26T09:51:52.190Z,102639.89
2019-06-26T09:54:22.745Z,102631.62
2019-06-26T09:56:50.545Z,102639.02
2019-06-26T09:59:18.244Z,102637.39
2019-06-26T10:01:45.995Z,102623.33
2019-06-26T10:04:13.862Z,102633.20
2019-06-26T10:06:41.723Z,102634.03
2019-06-26T10:09:12.577Z,102643.61
2019-06-26T10:11:40.424Z,102653.39
2019-06-26T10:14:08.244Z,102655.51
2019-06-26T10:16:35.947Z,102654.59
2019-06-26T10:19:10.176Z,102647.23
2019-06-26T10:21:33.704Z,102652.91
2019-06-26T10:24:01.622Z,102651.34
2019-06-26T10:26:32.340Z,102653.90
2019-06-26T10:28:59.080Z,102646.95
2019-06-26T10:31:26.788Z,102649.97
2019-06-26T10:33:54.640Z,102650.66
2019-06-26T10:36:24.664Z,102650.59
2019-06-26T10:38:52.523Z,102654.93
2019-06-26T10:41:20.455Z,102665.77
2019-06-26T10:43:48.294Z,102657.30
2019-06-26T10:46:15.991Z,102655.91
2019-06-26T10:48:43.820Z,102659.78
2019-06-26T10:51:12.313Z,102661.62
2019-06-26T10:54:04.422Z,102660.70
2019-06-26T10:56:32.379Z,102661.90
2019-06-26T10:59:00.301Z,102656.48
2019-06-26T11:01:31.056Z,102649.14
2019-06-26T11:04:00.366Z,102655.97
2019-06-26T11:06:28.190Z,102655.61
2019-06-26T11:08:56.035Z,102655.11
2019-06-26T11:11:23.732Z,102648.25
2019-06-26T11:13:53.597Z,102645.81
2019-06-26T11:16:21.368Z,102642.84
2019-06-26T11:18:49.188Z,102644.30
2019-06-26T11:21:16.904Z,102644.98
2019-06-26T11:23:44.727Z,102648.78
2019-06-26T11:26:12.514Z,102642.14
2019-06-26T11:28:40.969Z,102646.52
2019-06-26T11:31:11.459Z,102651.09
2019-06-26T11:33:39.388Z,102655.08
2019-06-26T11:36:07.100Z,102642.33
2019-06-26T11:38:34.919Z,102642.66
2019-06-26T11:41:02.843Z,102642.44
2019-06-26T11:43:30.664Z,102641.45
2019-06-26T11:45:58.383Z,102632.37
2019-06-26T11:48:26.149Z,102632.83
2019-06-26T11:50:54.015Z,102634.15
2019-06-26T11:53:27.414Z,102634.77
2019-06-26T11:55:55.248Z,102638.71
2019-06-26T11:58:22.942Z,102645.33
2019-06-26T12:00:51.105Z,102644.14
2019-06-26T12:03:18.882Z,102640.93
2019-06-26T12:05:46.594Z,102643.13
2019-06-26T12:08:14.303Z,102645.89
2019-06-26T12:10:42.137Z,102642.12
2019-06-26T12:13:10.104Z,102640.44
2019-06-26T12:15:37.905Z,102642.66
2019-06-26T12:18:05.812Z,102640.81
2019-06-26T12:20:33.488Z,102647.42
2019-06-26T12:23:01.274Z,102635.79
2019-06-26T12:25:29.181Z,102650.05
2019-06-26T12:27:56.950Z,102651.81
2019-06-26T12:30:25.351Z,102656.50
2019-06-26T12:33:03.070Z,102663.27
2019-06-26T12:35:22.881Z,102666.21
2019-06-26T12:37:50.698Z,102663.66
2019-06-26T12:40:20.828Z,102667.27
2019-06-26T12:42:48.662Z,102677.14
2019-06-26T12:45:16.878Z,102663.92
2019-06-26T12:47:44.570Z,102681.63
2019-06-26T12:50:13.381Z,102676.52
2019-06-26T12:52:41.181Z,102690.42
2019-06-26T12:55:09.103Z,102681.89
2019-06-26T12:57:36.988Z,102684.94
2019-06-26T13:00:05.571Z,102682.73
2019-06-26T13:02:33.563Z,102679.19
2019-06-26T13:05:01.462Z,102681.14
2019-06-26T13:07:29.157Z,102681.02
2019-06-26T13:10:16.907Z,102688.88
2019-06-26T13:12:46.074Z,102697.95
2019-06-26T13:15:14.484Z,102693.28
2019-06-26T13:17:42.200Z,102695.07
2019-06-26T13:20:10.772Z,102695.13
2019-06-26T13:22:38.740Z,102693.45
2019-06-26T13:25:07.636Z,102689.59
2019-06-26T13:27:35.520Z,102696.52
2019-06-26T13:30:03.717Z,102695.42
2019-06-26T13:32:31.504Z,102686.48
2019-06-26T13:34:59.387Z,102687.34
2019-06-26T13:37:27.161Z,102685.42
2019-06-26T13:39:55.305Z,102692.78
2019-06-26T13:42:23.189Z,102687.34
2019-06-26T13:44:52.670Z,102678.13
2019-06-26T13:47:20.588Z,102673.87
2019-06-26T13:49:48.276Z,102670.00
2019-06-26T13:52:15.971Z,102657.84
2019-06-26T13:54:43.837Z,102657.66
2019-06-26T13:57:11.550Z,102660.66
2019-06-26T13:59:39.384Z,102664.19
2019-06-26T14:02:07.087Z,102661.94
2019-06-26T14:04:34.763Z,102660.08
2019-06-26T14:07:02.578Z,102653.45
2019-06-26T14:09:30.363Z,102651.69
2019-06-26T14:11:58.203Z,102650.94
2019-06-26T14:14:41.047Z,102638.73
2019-06-26T14:16:55.645Z,102637.02
2019-06-26T14:19:26.623Z,102632.29
2019-06-26T14:21:53.077Z,102634.54
2019-06-26T14:24:20.964Z,102638.68
2019-06-26T14:26:48.772Z,102633.36
2019-06-26T14:29:20.775Z,102634.92
2019-06-26T14:31:46.227Z,102635.14
2019-06-26T14:34:13.942Z,102638.55
2019-06-26T14:36:41.822Z,102638.08
2019-06-26T14:39:09.632Z,102642.48
2019-06-26T14:41:39.204Z,102638.23
2019-06-26T14:44:07.222Z,102646.98
2019-06-26T14:46:34.987Z,102648.11
2019-06-26T14:49:03.478Z,102652.23
2019-06-26T14:51:42.241Z,102654.98
2019-06-26T14:54:00.844Z,102657.42
2019-06-26T14:56:28.697Z,102645.89
2019-06-26T14:58:56.503Z,102648.69
2019-06-26T15:01:24.337Z,102647.91
2019-06-26T15:03:52.076Z,102654.95
2019-06-26T15:06:19.927Z,102654.03
2019-06-26T15:08:47.615Z,102654.23
2019-06-26T15:11:15.804Z,102653.34
2019-06-26T15:13:43.824Z,102653.61
2019-06-26T15:16:11.896Z,102651.84
2019-06-26T15:18:39.681Z,102659.63
2019-06-26T15:21:07.460Z,102655.06
2019-06-26T15:23:35.297Z,102659.52
2019-06-26T15:26:03.011Z,102664.50
2019-06-26T15:28:30.718Z,102660.23
2019-06-26T15:30:58.575Z,102662.88
2019-06-26T15:33:26.321Z,102653.33
2019-06-26T15:35:54.129Z,102655.83
2019-06-26T15:38:21.840Z,102654.02
2019-06-26T15:40:49.643Z,102655.27
2019-06-26T15:43:17.509Z,102646.06
2019-06-26T15:45:45.215Z,102654.59
2019-06-26T15:48:17.945Z,102654.13
2019-06-26T15:50:45.844Z,102652.94
2019-06-26T15:53:14.130Z,102644.95
2019-06-26T15:55:41.956Z,102646.86
2019-06-26T15:58:09.672Z,102647.30
2019-06-26T16:00:37.493Z,102648.13
2019-06-26T16:03:05.191Z,102643.70
2019-06-26T16:05:33.046Z,102654.86
2019-06-26T16:08:00.790Z,102656.42
2019-06-26T16:10:28.483Z,102653.87
2019-06-26T16:12:56.442Z,102655.07
2019-06-26T16:15:24.319Z,102651.84
2019-06-26T16:18:03.650Z,102651.13
2019-06-26T16:20:32.538Z,102653.98
2019-06-26T16:23:00.231Z,102645.84
2019-06-26T16:25:28.101Z,102655.98
2019-06-26T16:28:05.097Z,102657.88
2019-06-26T16:30:25.546Z,102650.00
2019-06-26T16:32:56.680Z,102655.42
2019-06-26T16:35:23.075Z,102647.80
2019-06-26T16:37:50.766Z,102655.43
2019-06-26T16:40:18.613Z,102654.86
2019-06-26T16:43:05.620Z,102648.30
2019-06-26T16:48:27.324Z,102654.66
2019-06-26T16:50:55.574Z,102646.75
2019-06-26T16:53:23.412Z,102660.27
2019-06-26T16:55:51.119Z,102657.73
2019-06-26T16:58:19.010Z,102650.95
2019-06-26T17:00:46.757Z,102655.82
2019-06-26T17:03:14.685Z,102653.52
2019-06-26T17:05:42.624Z,102655.40
2019-06-26T17:08:10.685Z,102650.87
2019-06-26T17:10:38.415Z,102649.11
2019-06-26T17:13:06.292Z,102647.50
2019-06-26T17:15:34.118Z,102657.44
2019-06-26T17:18:02.086Z,102647.27
2019-06-26T17:20:30.233Z,102650.47
2019-06-26T17:23:05.606Z,102653.78
2019-06-26T17:25:27.623Z,102650.80
2019-06-26T17:27:55.428Z,102642.91
2019-06-26T17:30:23.237Z,102646.30
2019-06-26T17:32:50.960Z,102647.50
2019-06-26T17:35:18.704Z,102648.23
2019-06-26T17:37:46.558Z,102653.41
2019-06-26T17:40:14.395Z,102646.33
2019-06-26T17:42:42.322Z,102648.91
2019-06-26T17:45:10.081Z,102641.64
2019-06-26T17:47:37.949Z,102641.23
2019-06-26T17:50:07.063Z,102641.39
2019-06-26T17:52:38.268Z,102648.45
2019-06-26T17:55:05.466Z,102649.78
2019-06-26T17:57:37.531Z,102650.02
2019-06-26T18:00:06.956Z,102648.09
2019-06-26T18:02:35.071Z,102660.63
2019-06-26T18:05:02.875Z,102662.47
2019-06-26T18:07:30.767Z,102673.30
2019-06-26T18:10:07.356Z,102672.36
2019-06-26T18:12:35.298Z,102674.55
2019-06-26T18:15:03.377Z,102669.53
2019-06-26T18:17:31.224Z,102674.16
2019-06-26T18:19:59.102Z,102668.67
2019-06-26T18:22:26.909Z,102671.39
2019-06-26T18:24:54.639Z,102669.61
2019-06-26T18:27:22.874Z,102670.80
2019-06-26T18:29:50.686Z,102682.11
2019-06-26T18:32:18.458Z,102681.23
2019-06-26T18:34:46.977Z,102680.71
2019-06-26T18:37:14.833Z,102691.67
2019-06-26T18:39:42.674Z,102690.73
2019-06-26T18:42:10.398Z,102684.69
2019-06-26T18:44:38.140Z,102683.56
2019-06-26T18:47:06.168Z,102687.48
2019-06-26T18:49:33.882Z,102686.81
2019-06-26T18:52:01.600Z,102683.52
2019-06-26T18:54:29.438Z,102683.63
2019-06-26T18:56:57.164Z,102694.17
2019-06-26T18:59:28.722Z,102696.89
2019-06-26T19:01:56.702Z,102695.55
2019-06-26T19:04:24.513Z,102693.14
2019-06-26T19:06:52.254Z,102680.14
2019-06-26T19:09:20.098Z,102696.10
2019-06-26T19:11:47.848Z,102698.05
2019-06-26T19:14:15.578Z,102706.09
2019-06-26T19:16:43.446Z,102710.97
2019-06-26T19:19:12.304Z,102712.82
2019-06-26T19:21:43.094Z,102717.20
2019-06-26T19:24:11.172Z,102719.38
2019-06-26T19:26:39.016Z,102722.36
2019-06-26T19:29:06.724Z,102721.39
2019-06-26T19:31:34.589Z,102724.25
2019-06-26T19:34:02.528Z,102722.42
2019-06-26T19:36:30.273Z,102731.58
2019-06-26T19:38:58.188Z,102737.23
2019-06-26T19:41:25.915Z,102749.61
2019-06-26T19:43:53.786Z,102747.79
2019-06-26T19:46:21.629Z,102746.64
2019-06-26T19:48:49.383Z,102753.40
2019-06-26T19:51:17.480Z,102755.75
2019-06-26T19:53:45.546Z,102756.73
2019-06-26T19:56:13.374Z,102757.53
2019-06-26T19:58:41.237Z,102761.31
2019-06-26T20:01:09.200Z,102764.95
2019-06-26T20:03:36.979Z,102771.90
2019-06-26T20:06:04.867Z,102779.48
2019-06-26T20:08:32.711Z,102777.14
2019-06-26T20:11:00.533Z,102790.83
2019-06-26T20:13:28.409Z,102793.84
2019-06-26T20:15:56.133Z,102792.65
2019-06-26T20:18:23.850Z,102798.10
2019-06-26T20:20:51.704Z,102802.38
2019-06-26T20:23:19.774Z,102802.51
2019-06-26T20:25:47.496Z,102811.41
2019-06-26T20:28:15.388Z,102817.22
2019-06-26T20:30:43.134Z,102811.84
2019-06-26T20:33:11.897Z,102813.96
2019-06-26T20:35:39.671Z,102813.66
2019-06-26T20:38:07.395Z,102816.95
2019-06-26T20:40:35.382Z,102807.32
2019-06-26T20:43:03.551Z,102808.14
2019-06-26T20:45:31.275Z,102808.76
2019-06-26T20:48:01.048Z,102812.54
2019-06-26T20:50:28.749Z,102808.78
2019-06-26T20:52:56.673Z,102817.80
2019-06-26T20:55:24.646Z,102819.19
2019-06-26T20:57:52.574Z,102806.83
2019-06-26T21:00:22.564Z,102818.91
2019-06-26T21:02:53.191Z,102814.77
2019-06-26T21:05:19.737Z,102822.34
2019-06-26T21:07:47.602Z,102828.47
2019-06-26T21:10:15.761Z,102827.02
2019-06-26T21:12:43.472Z,102826.72
2019-06-26T21:15:12.010Z,102833.02
2019-06-26T21:17:39.913Z,102831.42
2019-06-26T21:20:08.915Z,102828.12
2019-06-26T21:22:36.634Z,102833.20
2019-06-26T21:25:17.471Z,102828.89
2019-06-26T21:27:34.858Z,102832.94
2019-06-26T21:30:02.741Z,102833.59
2019-06-26T21:32:30.638Z,102834.45
2019-06-26T21:34:58.331Z,102834.47
2019-06-26T21:37:26.259Z,102835.11
2019-06-26T21:39:54.130Z,102838.16
2019-06-26T21:42:22.104Z,102832.88
2019-06-26T21:44:50.065Z,102838.77
2019-06-26T21:47:17.782Z,102833.33
2019-06-26T21:49:45.727Z,102840.48
2019-06-26T21:52:13.672Z,102843.38
2019-06-26T21:54:41.386Z,102846.66
2019-06-26T21:57:09.524Z,102842.73
2019-06-26T21:59:37.455Z,102843.34
2019-06-26T22:02:05.191Z,102849.48
2019-06-26T22:04:32.859Z,102850.64
2019-06-26T22:07:01.646Z,102855.30
2019-06-26T22:09:29.447Z,102857.41
2019-06-26T22:12:00.685Z,102860.16
2019-06-26T22:14:27.191Z,102859.94
2019-06-26T22:16:54.922Z,102867.02
2019-06-26T22:19:22.826Z,102867.63
2019-06-26T22:21:50.556Z,102871.00
2019-06-26T22:24:18.464Z,102872.80
2019-06-26T22:26:46.182Z,102870.70
2019-06-26T22:29:14.055Z,102874.97
2019-06-26T22:31:41.874Z,102871.84
2019-06-26T22:34:09.758Z,102884.96
2019-06-26T22:36:37.586Z,102883.16
2019-06-26T22:39:05.883Z,102885.52
2019-06-26T22:41:33.715Z,102885.34
2019-06-26T22:44:01.429Z,102883.89
2019-06-26T22:46:29.125Z,102883.70
2019-06-26T22:48:56.978Z,102884.96
2019-06-26T22:51:24.684Z,102877.55
2019-06-26T22:53:52.624Z,102882.54
2019-06-26T22:56:20.412Z,102876.37
2019-06-26T22:58:48.369Z,102873.29
2019-06-26T23:01:16.277Z,102872.50
2019-06-26T23:03:44.018Z,102873.86
2019-06-26T23:06:11.985Z,102886.11
2019-06-26T23:08:39.687Z,102885.62
2019-06-26T23:11:07.383Z,102889.92
2019-06-26T23:13:35.291Z,102897.42
2019-06-26T23:16:03.176Z,102903.12
2019-06-26T23:18:30.866Z,102896.25
2019-06-26T23:20:58.813Z,102894.61
2019-06-26T23:23:26.532Z,102896.33
2019-06-26T23:25:55.175Z,102895.23
2019-06-26T23:28:23.340Z,102898.98
2019-06-26T23:30:51.022Z,102896.80
2019-06-26T23:33:18.727Z,102905.63
2019-06-26T23:35:46.767Z,102900.31
2019-06-26T23:38:14.457Z,102901.50
2019-06-26T23:40:42.163Z,102899.22
2019-06-26T23:43:10.050Z,102896.64
2019-06-26T23:45:37.747Z,102892.36
2019-06-26T23:48:05.586Z,102893.45
2019-06-26T23:50:33.415Z,102891.49
2019-06-26T23:53:01.116Z,102891.42
2019-06-26T23:55:28.885Z,102891.75
2019-06-26T23:57:59.501Z,102885.43
